Time;durP1;ratioP1;P1;durP2;ratioP2;P2;SDS_P1;SDS_P2;PMS_P1;PMS_P2;Temp;Humidity;BMP_temperature;BMP_pressure;BME280_temperature;BME280_humidity;BME280_pressure;Samples;Min_cycle;Max_cycle;Signal;HPM_P1;HPM_P2
2022/11/13 00:00:18;;;;;;;26.60;18.47;;;;;;;;;;5077623;28;20279;-68
2022/11/13 00:02:45;;;;;;;23.07;18.73;;;;;;;;;;5076941;28;20232;-68
2022/11/13 00:05:10;;;;;;;23.43;17.47;;;;;;;;;;5075269;28;20178;-69
2022/11/13 00:07:36;;;;;;;24.00;18.93;;;;;;;;;;5074289;28;20184;-68
2022/11/13 00:10:02;;;;;;;23.83;18.47;;;;;;;;;;5073927;28;20189;-68
2022/11/13 00:12:29;;;;;;;24.10;18.80;;;;;;;;;;5072508;28;20209;-68
2022/11/13 00:14:55;;;;;;;23.97;19.47;;;;;;;;;;5073670;28;20205;-67
2022/11/13 00:17:20;;;;;;;29.90;19.53;;;;;;;;;;5073642;28;20534;-68
2022/11/13 00:19:46;;;;;;;22.87;18.30;;;;;;;;;;5072512;28;20247;-68
2022/11/13 00:22:12;;;;;;;23.43;18.33;;;;;;;;;;5073888;28;20670;-68
2022/11/13 00:24:38;;;;;;;25.20;19.73;;;;;;;;;;5072152;28;20178;-68
2022/11/13 00:27:04;;;;;;;24.63;19.77;;;;;;;;;;5072122;28;20169;-69
2022/11/13 00:29:30;;;;;;;27.93;20.57;;;;;;;;;;5072120;28;20178;-67
2022/11/13 00:31:56;;;;;;;27.00;20.90;;;;;;;;;;5071832;28;20188;-67
2022/11/13 00:34:22;;;;;;;25.67;21.37;;;;;;;;;;5073149;28;20257;-68
2022/11/13 00:36:48;;;;;;;25.60;21.47;;;;;;;;;;5072161;28;20213;-69
2022/11/13 00:39:14;;;;;;;23.20;20.70;;;;;;;;;;5073684;28;20174;-69
2022/11/13 00:41:40;;;;;;;24.83;20.40;;;;;;;;;;5073386;28;20713;-68
2022/11/13 00:44:06;;;;;;;24.17;20.10;;;;;;;;;;5073459;28;20697;-68
2022/11/13 00:46:32;;;;;;;25.53;19.80;;;;;;;;;;5072692;28;20259;-68
2022/11/13 00:48:58;;;;;;;27.43;20.20;;;;;;;;;;5074403;28;20645;-68
2022/11/13 00:51:24;;;;;;;26.30;20.90;;;;;;;;;;5072710;28;20551;-68
2022/11/13 00:53:50;;;;;;;24.90;20.87;;;;;;;;;;5073165;28;20225;-67
2022/11/13 00:56:16;;;;;;;26.87;21.60;;;;;;;;;;5071832;28;20589;-68
2022/11/13 00:58:42;;;;;;;28.50;21.37;;;;;;;;;;5073428;28;20622;-67
2022/11/13 01:01:09;;;;;;;25.20;20.93;;;;;;;;;;5073187;28;20184;-68
2022/11/13 01:03:35;;;;;;;25.27;19.80;;;;;;;;;;5072867;28;20213;-68
2022/11/13 01:06:08;;;;;;;26.20;20.30;;;;;;;;;;5073049;28;20184;-68
2022/11/13 01:08:34;;;;;;;26.47;20.57;;;;;;;;;;5073476;28;20166;-68
2022/11/13 01:11:07;;;;;;;24.43;20.53;;;;;;;;;;5072220;28;20182;-68
2022/11/13 01:13:33;;;;;;;27.10;21.37;;;;;;;;;;5073470;28;20243;-69
2022/11/13 01:15:59;;;;;;;28.40;20.10;;;;;;;;;;5071754;28;20237;-68
2022/11/13 01:18:25;;;;;;;26.37;20.30;;;;;;;;;;5073226;28;20227;-68
2022/11/13 01:20:51;;;;;;;25.63;20.03;;;;;;;;;;5073049;28;20176;-68
2022/11/13 01:23:16;;;;;;;23.77;20.80;;;;;;;;;;5073033;28;20206;-67
2022/11/13 01:25:42;;;;;;;24.50;20.80;;;;;;;;;;5071702;28;20231;-67
2022/11/13 01:28:08;;;;;;;28.03;21.07;;;;;;;;;;5071299;28;20193;-68
2022/11/13 01:30:34;;;;;;;25.53;21.83;;;;;;;;;;5073097;28;20642;-68
2022/11/13 01:33:00;;;;;;;28.87;22.03;;;;;;;;;;5071543;28;20678;-68
2022/11/13 01:35:26;;;;;;;27.70;22.13;;;;;;;;;;5072761;28;20674;-68
2022/11/13 01:37:52;;;;;;;30.00;21.60;;;;;;;;;;5071317;28;20181;-68
2022/11/13 01:40:18;;;;;;;26.80;21.53;;;;;;;;;;5076149;28;20188;-68
2022/11/13 01:42:44;;;;;;;27.37;21.80;;;;;;;;;;5072857;28;20283;-68
2022/11/13 01:45:30;;;;;;;30.80;23.47;;;;;;;;;;5071296;28;20178;-68
2022/11/13 01:47:56;;;;;;;25.90;21.43;;;;;;;;;;5061849;28;20272;-68
2022/11/13 01:50:22;;;;;;;30.00;22.87;;;;;;;;;;5071158;28;20217;-68
2022/11/13 01:52:48;;;;;;;26.93;22.00;;;;;;;;;;5071142;28;20198;-68
2022/11/13 01:55:15;;;;;;;30.90;21.67;;;;;;;;;;5071095;28;20619;-68
2022/11/13 01:57:42;;;;;;;25.17;21.60;;;;;;;;;;5072623;28;20511;-68
2022/11/13 02:00:10;;;;;;;29.23;21.50;;;;;;;;;;5075900;28;20170;-68
2022/11/13 02:02:36;;;;;;;27.47;21.40;;;;;;;;;;5076028;28;20776;-68
2022/11/13 02:05:02;;;;;;;26.07;21.37;;;;;;;;;;5074537;28;20186;-68
2022/11/13 02:07:28;;;;;;;26.67;22.47;;;;;;;;;;5075944;28;20181;-68
2022/11/13 02:09:55;;;;;;;32.60;22.83;;;;;;;;;;5075962;28;20181;-68
2022/11/13 02:12:32;;;;;;;25.47;21.77;;;;;;;;;;5075682;28;20208;-68
2022/11/13 02:14:59;;;;;;;30.47;22.80;;;;;;;;;;5075750;28;20235;-68
2022/11/13 02:17:27;;;;;;;30.43;23.83;;;;;;;;;;5075803;28;20695;-68
2022/11/13 02:19:55;;;;;;;29.17;22.63;;;;;;;;;;5075689;28;20174;-68
2022/11/13 02:22:33;;;;;;;29.27;23.10;;;;;;;;;;5075876;28;20194;-69
2022/11/13 02:25:01;;;;;;;31.13;24.30;;;;;;;;;;5074313;28;20597;-68
2022/11/13 02:27:33;;;;;;;29.13;23.27;;;;;;;;;;5075598;28;20185;-68
2022/11/13 02:30:10;;;;;;;35.83;25.47;;;;;;;;;;5078122;28;20190;-68
2022/11/13 02:32:41;;;;;;;32.97;24.67;;;;;;;;;;5075691;28;20284;-68
2022/11/13 02:35:07;;;;;;;29.30;24.53;;;;;;;;;;5075324;28;20189;-68
2022/11/13 02:37:33;;;;;;;30.03;22.80;;;;;;;;;;5075244;28;20178;-67
2022/11/13 02:39:59;;;;;;;26.27;21.07;;;;;;;;;;5075162;28;20178;-68
2022/11/13 02:42:25;;;;;;;35.03;26.73;;;;;;;;;;5075502;28;20719;-68
2022/11/13 02:44:51;;;;;;;36.47;29.83;;;;;;;;;;5075626;28;20224;-68
2022/11/13 02:47:17;;;;;;;35.80;30.33;;;;;;;;;;5075194;28;20635;-68
2022/11/13 02:49:43;;;;;;;43.33;34.23;;;;;;;;;;5075164;28;20630;-68
2022/11/13 02:52:08;;;;;;;35.93;29.33;;;;;;;;;;5074644;28;20193;-68
2022/11/13 02:54:34;;;;;;;42.57;36.70;;;;;;;;;;5074874;28;20210;-68
2022/11/13 02:57:00;;;;;;;68.27;56.93;;;;;;;;;;5074486;28;20209;-68
2022/11/13 02:59:26;;;;;;;69.33;55.23;;;;;;;;;;5074468;28;20170;-68
2022/11/13 03:01:52;;;;;;;63.87;53.47;;;;;;;;;;5074615;28;20181;-68
2022/11/13 03:04:18;;;;;;;44.10;35.60;;;;;;;;;;5073156;28;20181;-68
2022/11/13 03:06:44;;;;;;;45.53;39.13;;;;;;;;;;5074610;28;20205;-68
2022/11/13 03:09:10;;;;;;;40.93;34.90;;;;;;;;;;5074411;28;20178;-67
2022/11/13 03:11:36;;;;;;;30.80;27.20;;;;;;;;;;5073614;28;20182;-68
2022/11/13 03:14:02;;;;;;;33.30;28.60;;;;;;;;;;5074185;28;20193;-68
2022/11/13 03:16:28;;;;;;;34.97;29.07;;;;;;;;;;5074102;28;20205;-68
2022/11/13 03:18:54;;;;;;;34.50;30.57;;;;;;;;;;5074502;28;20174;-68
2022/11/13 03:21:20;;;;;;;42.53;35.77;;;;;;;;;;5075169;28;20244;-68
2022/11/13 03:23:46;;;;;;;38.07;31.23;;;;;;;;;;5074173;28;20627;-68
2022/11/13 03:26:13;;;;;;;37.60;31.00;;;;;;;;;;5072797;28;20579;-68
2022/11/13 03:28:40;;;;;;;23.07;19.53;;;;;;;;;;5073990;28;20185;-67
2022/11/13 03:31:06;;;;;;;28.83;20.77;;;;;;;;;;5073084;28;20193;-68
2022/11/13 03:33:32;;;;;;;26.37;20.13;;;;;;;;;;5074038;28;20198;-67
2022/11/13 03:35:58;;;;;;;27.83;24.00;;;;;;;;;;5075281;28;20208;-68
2022/11/13 03:38:25;;;;;;;30.90;25.10;;;;;;;;;;5074946;28;20170;-68
2022/11/13 03:40:51;;;;;;;34.43;28.60;;;;;;;;;;5075193;28;20205;-68
2022/11/13 03:43:17;;;;;;;32.83;26.67;;;;;;;;;;5073000;28;20201;-68
2022/11/13 03:45:45;;;;;;;29.27;25.13;;;;;;;;;;5073811;28;20188;-68
2022/11/13 03:48:11;;;;;;;30.23;25.27;;;;;;;;;;5072591;28;20181;-68
2022/11/13 03:50:37;;;;;;;32.70;24.63;;;;;;;;;;5073776;28;20641;-68
2022/11/13 03:53:03;;;;;;;30.23;25.60;;;;;;;;;;5073617;28;20573;-68
2022/11/13 03:55:28;;;;;;;31.70;22.70;;;;;;;;;;5073384;28;20212;-68
2022/11/13 03:57:54;;;;;;;25.70;20.93;;;;;;;;;;5073674;28;20180;-69
2022/11/13 04:00:20;;;;;;;21.00;18.53;;;;;;;;;;5073811;28;20174;-68
2022/11/13 04:02:46;;;;;;;22.30;19.33;;;;;;;;;;5073602;28;20210;-68
2022/11/13 04:05:12;;;;;;;21.50;18.23;;;;;;;;;;5073554;28;20311;-68
2022/11/13 04:07:38;;;;;;;19.67;16.77;;;;;;;;;;5073844;28;20186;-68
2022/11/13 04:10:04;;;;;;;13.37;11.80;;;;;;;;;;5072167;28;20259;-68
2022/11/13 04:12:30;;;;;;;14.00;11.33;;;;;;;;;;5076208;28;20225;-69
2022/11/13 04:14:56;;;;;;;13.83;12.13;;;;;;;;;;5073765;28;20232;-68
2022/11/13 04:17:22;;;;;;;12.97;10.20;;;;;;;;;;5072226;28;20212;-68
2022/11/13 04:19:48;;;;;;;14.13;10.10;;;;;;;;;;5073502;28;20682;-70
2022/11/13 04:22:14;;;;;;;10.93;9.00;;;;;;;;;;5071582;28;20198;-68
2022/11/13 04:24:40;;;;;;;10.30;8.83;;;;;;;;;;5073548;28;20224;-68
2022/11/13 04:27:06;;;;;;;9.87;8.87;;;;;;;;;;5072008;28;20207;-68
2022/11/13 04:29:32;;;;;;;11.13;9.40;;;;;;;;;;5073267;28;20277;-68
2022/11/13 04:31:58;;;;;;;10.80;9.50;;;;;;;;;;5073078;28;20192;-67
2022/11/13 04:34:24;;;;;;;10.20;8.73;;;;;;;;;;5073132;28;20189;-68
2022/11/13 04:36:50;;;;;;;11.57;7.80;;;;;;;;;;5073304;28;20330;-68
2022/11/13 04:39:16;;;;;;;10.10;8.23;;;;;;;;;;5073049;28;20199;-67
2022/11/13 04:44:26;;;;;;;11.20;8.57;;;;;;;;;;5073410;28;20536;-69
2022/11/13 04:46:52;;;;;;;10.27;8.53;;;;;;;;;;5073010;28;20178;-68
2022/11/13 04:49:18;;;;;;;9.43;8.20;;;;;;;;;;5071763;28;20207;-68
2022/11/13 04:51:44;;;;;;;11.07;8.80;;;;;;;;;;5073302;28;20604;-68
2022/11/13 04:54:10;;;;;;;11.13;8.33;;;;;;;;;;5072807;28;20657;-67
2022/11/13 04:56:36;;;;;;;10.00;9.00;;;;;;;;;;5072728;28;20258;-69
2022/11/13 04:59:02;;;;;;;12.17;9.07;;;;;;;;;;5073190;28;20174;-68
2022/11/13 05:01:28;;;;;;;10.20;8.73;;;;;;;;;;5074206;28;20188;-68
2022/11/13 05:03:54;;;;;;;9.77;8.77;;;;;;;;;;5073152;28;20248;-68
2022/11/13 05:06:21;;;;;;;11.87;9.13;;;;;;;;;;5072925;28;20178;-68
2022/11/13 05:08:47;;;;;;;10.73;8.20;;;;;;;;;;5071241;28;20235;-68
2022/11/13 05:11:13;;;;;;;9.70;8.70;;;;;;;;;;5071348;28;20186;-68
2022/11/13 05:13:39;;;;;;;9.77;8.43;;;;;;;;;;5071273;28;20202;-68
2022/11/13 05:16:06;;;;;;;13.43;9.27;;;;;;;;;;5072679;28;20209;-68
2022/11/13 05:18:33;;;;;;;9.93;8.77;;;;;;;;;;5072768;28;20177;-68
2022/11/13 05:20:59;;;;;;;10.90;8.50;;;;;;;;;;5072867;28;20178;-69
2022/11/13 05:23:25;;;;;;;10.63;8.77;;;;;;;;;;5072771;28;20559;-68
2022/11/13 05:25:51;;;;;;;12.60;9.50;;;;;;;;;;5072826;28;20185;-68
2022/11/13 05:28:17;;;;;;;12.10;8.70;;;;;;;;;;5072657;28;20227;-69
2022/11/13 05:30:43;;;;;;;13.83;8.20;;;;;;;;;;5072562;28;20200;-69
2022/11/13 05:33:09;;;;;;;13.73;8.70;;;;;;;;;;5072614;28;20209;-69
2022/11/13 05:35:35;;;;;;;10.20;8.60;;;;;;;;;;5076321;28;20259;-68
2022/11/13 05:38:01;;;;;;;13.13;8.37;;;;;;;;;;5076163;28;20227;-68
2022/11/13 05:40:28;;;;;;;10.27;8.67;;;;;;;;;;5076172;28;20224;-68
2022/11/13 05:42:54;;;;;;;9.93;8.73;;;;;;;;;;5076516;28;20196;-69
2022/11/13 05:45:20;;;;;;;11.93;8.07;;;;;;;;;;5076256;28;20227;-68
2022/11/13 05:47:46;;;;;;;10.23;8.00;;;;;;;;;;5076091;28;20740;-68
2022/11/13 05:50:12;;;;;;;11.33;8.93;;;;;;;;;;5074855;28;20190;-69
2022/11/13 05:52:38;;;;;;;10.00;8.10;;;;;;;;;;5075639;28;20202;-68
2022/11/13 05:55:04;;;;;;;9.10;7.93;;;;;;;;;;5076518;28;20181;-68
2022/11/13 05:57:30;;;;;;;10.20;8.65;;;;;;;;;;5075013;28;20367;-68
2022/11/13 05:59:56;;;;;;;9.20;8.17;;;;;;;;;;5076238;28;20174;-69
2022/11/13 06:02:22;;;;;;;9.50;8.50;;;;;;;;;;5076092;28;20209;-68
2022/11/13 06:04:49;;;;;;;9.47;8.47;;;;;;;;;;5075937;28;20257;-68
2022/11/13 06:07:14;;;;;;;9.80;7.70;;;;;;;;;;5076055;28;20650;-68
2022/11/13 06:09:40;;;;;;;8.93;7.73;;;;;;;;;;5076273;28;20177;-66
2022/11/13 06:12:06;;;;;;;8.57;7.67;;;;;;;;;;5074818;28;20723;-68
2022/11/13 06:14:32;;;;;;;10.97;7.77;;;;;;;;;;5074766;28;20216;-68
2022/11/13 06:16:58;;;;;;;10.60;8.37;;;;;;;;;;5077045;28;20201;-68
2022/11/13 06:19:24;;;;;;;11.07;8.00;;;;;;;;;;5077150;28;20541;-68
2022/11/13 06:21:50;;;;;;;11.37;8.10;;;;;;;;;;5076855;28;20174;-67
2022/11/13 06:24:16;;;;;;;10.43;7.93;;;;;;;;;;5075118;28;20177;-68
2022/11/13 06:26:42;;;;;;;9.47;8.43;;;;;;;;;;5075998;28;20184;-68
2022/11/13 06:29:10;;;;;;;8.93;8.03;;;;;;;;;;5075536;28;20312;-68
2022/11/13 06:31:36;;;;;;;9.37;7.87;;;;;;;;;;5075464;28;20182;-67
2022/11/13 06:34:03;;;;;;;9.93;7.97;;;;;;;;;;5075281;28;20689;-69
2022/11/13 06:36:30;;;;;;;9.57;8.57;;;;;;;;;;5075494;28;20205;-68
2022/11/13 06:38:56;;;;;;;10.17;7.90;;;;;;;;;;5075298;28;20231;-68
2022/11/13 06:41:23;;;;;;;9.43;7.73;;;;;;;;;;5078631;28;20174;-68
2022/11/13 06:43:50;;;;;;;10.10;7.87;;;;;;;;;;5077854;28;20289;-68
2022/11/13 06:46:17;;;;;;;11.60;8.50;;;;;;;;;;5075240;28;20174;-68
2022/11/13 06:48:43;;;;;;;11.10;9.27;;;;;;;;;;5075204;28;20192;-68
2022/11/13 06:51:12;;;;;;;11.20;9.37;;;;;;;;;;5075034;28;20260;-68
2022/11/13 06:53:38;;;;;;;12.50;8.77;;;;;;;;;;5073660;28;20274;-68
2022/11/13 06:56:05;;;;;;;10.70;8.67;;;;;;;;;;5075373;28;20685;-68
2022/11/13 06:58:31;;;;;;;13.00;8.83;;;;;;;;;;5075053;28;20170;-68
2022/11/13 07:00:57;;;;;;;9.80;8.80;;;;;;;;;;5075284;28;20170;-68
2022/11/13 07:03:24;;;;;;;14.73;9.43;;;;;;;;;;5074408;28;20804;-68
2022/11/13 07:05:50;;;;;;;11.17;9.43;;;;;;;;;;5073313;28;20177;-68
2022/11/13 07:08:16;;;;;;;11.37;9.57;;;;;;;;;;5074467;28;20209;-68
2022/11/13 07:10:43;;;;;;;13.50;9.03;;;;;;;;;;5074687;28;20182;-68
2022/11/13 07:13:09;;;;;;;13.47;10.03;;;;;;;;;;5074676;28;20198;-68
2022/11/13 07:15:36;;;;;;;12.70;9.70;;;;;;;;;;5073139;28;20201;-68
2022/11/13 07:18:02;;;;;;;10.97;9.80;;;;;;;;;;5074161;28;20205;-68
2022/11/13 07:20:29;;;;;;;11.23;9.10;;;;;;;;;;5073338;28;20546;-68
2022/11/13 07:22:55;;;;;;;11.40;9.80;;;;;;;;;;5074206;28;20198;-68
2022/11/13 07:25:21;;;;;;;12.97;9.93;;;;;;;;;;5074179;28;20212;-68
2022/11/13 07:27:47;;;;;;;13.13;9.30;;;;;;;;;;5073046;28;20185;-68
2022/11/13 07:30:13;;;;;;;11.83;10.50;;;;;;;;;;5074401;28;20553;-67
2022/11/13 07:32:39;;;;;;;15.33;9.87;;;;;;;;;;5075539;28;20704;-68
2022/11/13 07:35:05;;;;;;;11.03;9.70;;;;;;;;;;5072789;28;20182;-68
2022/11/13 07:37:31;;;;;;;10.30;8.67;;;;;;;;;;5074114;28;20252;-68
2022/11/13 07:39:57;;;;;;;13.53;9.77;;;;;;;;;;5074526;28;20174;-68
2022/11/13 07:42:23;;;;;;;13.43;10.23;;;;;;;;;;5072590;28;20697;-68
2022/11/13 07:44:49;;;;;;;12.80;9.53;;;;;;;;;;5074250;28;20204;-69
2022/11/13 07:47:15;;;;;;;17.77;9.73;;;;;;;;;;5072400;28;20533;-67
2022/11/13 07:49:41;;;;;;;10.83;9.60;;;;;;;;;;5073638;28;20188;-68
2022/11/13 07:52:07;;;;;;;12.80;9.90;;;;;;;;;;5072143;28;20182;-68
2022/11/13 07:54:33;;;;;;;12.37;9.40;;;;;;;;;;5072312;28;20182;-67
2022/11/13 07:56:59;;;;;;;13.63;10.73;;;;;;;;;;5071591;28;20270;-68
2022/11/13 08:02:01;;;;;;;11.30;9.63;;;;;;;;;;5071403;28;20216;-65
2022/11/13 08:04:27;;;;;;;12.60;9.53;;;;;;;;;;5073760;28;20178;-65
2022/11/13 08:06:53;;;;;;;12.93;9.53;;;;;;;;;;5073779;28;20181;-66
2022/11/13 08:09:19;;;;;;;12.63;10.10;;;;;;;;;;5072442;28;20188;-65
2022/11/13 08:11:45;;;;;;;15.47;9.20;;;;;;;;;;5073551;28;20194;-67
2022/11/13 08:14:11;;;;;;;10.63;9.30;;;;;;;;;;5073610;28;20177;-64
2022/11/13 08:16:37;;;;;;;12.67;8.63;;;;;;;;;;5072341;28;20197;-66
2022/11/13 08:19:03;;;;;;;10.67;8.23;;;;;;;;;;5074133;28;20174;-65
2022/11/13 08:21:29;;;;;;;11.43;9.50;;;;;;;;;;5072325;28;20202;-70
2022/11/13 08:23:55;;;;;;;11.20;10.03;;;;;;;;;;5072321;28;20190;-66
2022/11/13 08:26:21;;;;;;;13.13;11.43;;;;;;;;;;5073844;28;20181;-65
2022/11/13 08:28:47;;;;;;;12.17;10.10;;;;;;;;;;5073666;28;20177;-67
2022/11/13 08:31:14;;;;;;;15.63;12.13;;;;;;;;;;5073633;28;20209;-65
2022/11/13 08:33:41;;;;;;;15.60;14.00;;;;;;;;;;5073496;28;20174;-65
2022/11/13 08:36:07;;;;;;;13.63;12.13;;;;;;;;;;5073160;28;20295;-66
2022/11/13 08:38:33;;;;;;;13.90;12.10;;;;;;;;;;5074335;28;20601;-65
2022/11/13 08:41:00;;;;;;;11.73;10.53;;;;;;;;;;5074225;28;20190;-64
2022/11/13 08:43:26;;;;;;;11.67;10.07;;;;;;;;;;5074177;28;20220;-65
2022/11/13 08:45:52;;;;;;;12.53;10.17;;;;;;;;;;5073344;28;20185;-63
2022/11/13 08:48:19;;;;;;;10.57;8.60;;;;;;;;;;5073973;28;20641;-65
2022/11/13 08:50:45;;;;;;;11.97;9.47;;;;;;;;;;5073686;28;20201;-65
2022/11/13 08:53:11;;;;;;;12.20;8.43;;;;;;;;;;5073653;28;20189;-65
2022/11/13 08:55:37;;;;;;;9.80;8.37;;;;;;;;;;5072865;28;20236;-64
2022/11/13 08:58:04;;;;;;;10.30;7.50;;;;;;;;;;5074589;28;20622;-66
2022/11/13 09:00:31;;;;;;;13.23;7.33;;;;;;;;;;5073836;28;20303;-65
2022/11/13 09:02:58;;;;;;;9.03;7.03;;;;;;;;;;5072871;28;20224;-66
2022/11/13 09:05:24;;;;;;;9.63;7.93;;;;;;;;;;5072816;28;20645;-64
2022/11/13 09:07:51;;;;;;;9.90;7.80;;;;;;;;;;5075615;28;20185;-66
2022/11/13 09:10:17;;;;;;;10.93;8.37;;;;;;;;;;5076766;28;20651;-65
2022/11/13 09:12:43;;;;;;;10.07;7.83;;;;;;;;;;5078522;28;20571;-67
2022/11/13 09:15:10;;;;;;;9.37;8.40;;;;;;;;;;5077761;28;20181;-65
2022/11/13 09:17:37;;;;;;;10.83;8.50;;;;;;;;;;5075718;28;20182;-65
2022/11/13 09:20:05;;;;;;;10.43;9.07;;;;;;;;;;5076994;28;20684;-65
2022/11/13 09:22:32;;;;;;;11.60;8.10;;;;;;;;;;5077449;28;20177;-62
2022/11/13 09:24:57;;;;;;;10.73;8.53;;;;;;;;;;5077018;28;20174;-65
2022/11/13 09:27:23;;;;;;;9.33;8.10;;;;;;;;;;5076980;28;20181;-63
2022/11/13 09:29:49;;;;;;;12.57;8.23;;;;;;;;;;5076811;28;20229;-65
2022/11/13 09:32:16;;;;;;;11.17;8.00;;;;;;;;;;5076702;28;20243;-63
2022/11/13 09:34:42;;;;;;;8.67;7.43;;;;;;;;;;5075390;28;20182;-62
2022/11/13 09:37:08;;;;;;;9.97;6.63;;;;;;;;;;5076921;28;20562;-63
2022/11/13 09:39:34;;;;;;;11.27;6.23;;;;;;;;;;5075243;28;20217;-64
2022/11/13 09:42:20;;;;;;;6.50;5.43;;;;;;;;;;5075139;28;20174;-64
2022/11/13 09:44:55;;;;;;;6.57;5.07;;;;;;;;;;5076525;28;20548;-65
2022/11/13 09:47:24;;;;;;;7.87;5.13;;;;;;;;;;5076588;28;20592;-63
2022/11/13 09:49:57;;;;;;;6.70;5.30;;;;;;;;;;5076473;28;20203;-64
2022/11/13 09:52:34;;;;;;;8.90;5.40;;;;;;;;;;5075204;28;20162;-65
2022/11/13 09:55:03;;;;;;;6.40;4.67;;;;;;;;;;5077184;28;20172;-64
2022/11/13 09:57:44;;;;;;;6.27;4.93;;;;;;;;;;5076354;28;20166;-64
2022/11/13 10:00:10;;;;;;;7.33;5.07;;;;;;;;;;5074874;28;20545;-63
2022/11/13 10:02:39;;;;;;;8.20;5.03;;;;;;;;;;5074764;28;20606;-64
2022/11/13 10:05:12;;;;;;;7.63;5.07;;;;;;;;;;5075980;28;20180;-64
2022/11/13 10:07:38;;;;;;;6.87;5.03;;;;;;;;;;5074679;28;20541;-64
2022/11/13 10:10:16;;;;;;;5.73;4.73;;;;;;;;;;5074741;28;20201;-64
2022/11/13 10:12:44;;;;;;;6.93;5.40;;;;;;;;;;5076195;28;20608;-65
2022/11/13 10:15:10;;;;;;;6.80;5.83;;;;;;;;;;5075973;28;20185;-64
2022/11/13 10:17:38;;;;;;;6.70;5.90;;;;;;;;;;5075830;28;20177;-64
2022/11/13 10:20:14;;;;;;;10.30;5.40;;;;;;;;;;5075263;28;20228;-63
2022/11/13 10:22:50;;;;;;;6.90;5.60;;;;;;;;;;5074381;28;20684;-64
2022/11/13 10:25:21;;;;;;;6.00;5.20;;;;;;;;;;5075812;28;20173;-64
2022/11/13 10:27:53;;;;;;;7.67;5.80;;;;;;;;;;5074558;28;20177;-64
2022/11/13 10:30:19;;;;;;;6.57;5.47;;;;;;;;;;5075861;28;20198;-65
2022/11/13 10:32:46;;;;;;;8.70;5.33;;;;;;;;;;5075459;28;20553;-64
2022/11/13 10:35:11;;;;;;;8.07;5.33;;;;;;;;;;5074186;28;20184;-65
2022/11/13 10:37:56;;;;;;;6.30;5.47;;;;;;;;;;5075678;28;20177;-65
2022/11/13 10:40:24;;;;;;;5.80;5.10;;;;;;;;;;5073836;28;20201;-64
2022/11/13 10:42:50;;;;;;;7.00;5.20;;;;;;;;;;5075495;28;20177;-66
2022/11/13 10:45:17;;;;;;;8.53;5.03;;;;;;;;;;5075118;28;20533;-64
2022/11/13 10:47:47;;;;;;;7.37;5.27;;;;;;;;;;5075649;28;20227;-65
2022/11/13 10:50:22;;;;;;;6.10;4.67;;;;;;;;;;5075264;28;20704;-64
2022/11/13 10:52:49;;;;;;;9.50;5.13;;;;;;;;;;5075321;28;20169;-65
2022/11/13 10:55:30;;;;;;;8.43;4.93;;;;;;;;;;5073735;28;20181;-64
2022/11/13 10:58:00;;;;;;;5.80;4.60;;;;;;;;;;5075384;28;20174;-63
2022/11/13 11:00:31;;;;;;;5.97;4.60;;;;;;;;;;5075322;28;20356;-65
2022/11/13 11:02:57;;;;;;;7.30;5.80;;;;;;;;;;5074853;28;20170;-65
2022/11/13 11:05:24;;;;;;;7.47;6.20;;;;;;;;;;5074988;28;20182;-64
2022/11/13 11:07:50;;;;;;;7.20;6.07;;;;;;;;;;5074805;28;20177;-64
2022/11/13 11:10:31;;;;;;;6.70;5.40;;;;;;;;;;5073328;28;20293;-65
2022/11/13 11:12:59;;;;;;;7.87;5.70;;;;;;;;;;5074763;28;20178;-65
2022/11/13 11:15:33;;;;;;;7.67;6.20;;;;;;;;;;5073288;28;20285;-65
2022/11/13 11:18:04;;;;;;;7.90;6.50;;;;;;;;;;5074493;28;20170;-64
2022/11/13 11:20:48;;;;;;;9.43;7.00;;;;;;;;;;5074359;28;20732;-65
2022/11/13 11:23:37;;;;;;;11.70;7.77;;;;;;;;;;5072966;28;20177;-65
2022/11/13 11:26:09;;;;;;;13.67;9.10;;;;;;;;;;5074259;28;20245;-65
2022/11/13 11:28:37;;;;;;;10.67;7.90;;;;;;;;;;5074046;28;20208;-64
2022/11/13 11:31:09;;;;;;;10.67;7.57;;;;;;;;;;5073204;28;20300;-65
2022/11/13 11:33:36;;;;;;;18.93;8.40;;;;;;;;;;5072692;28;20644;-65
2022/11/13 11:36:25;;;;;;;17.23;8.30;;;;;;;;;;5074132;28;20314;-65
2022/11/13 11:38:51;;;;;;;16.60;9.23;;;;;;;;;;5073971;28;20501;-65
2022/11/13 11:41:19;;;;;;;14.77;8.50;;;;;;;;;;5073913;28;20691;-65
2022/11/13 11:44:03;;;;;;;13.10;8.07;;;;;;;;;;5074086;28;20519;-65
2022/11/13 11:46:30;;;;;;;13.17;8.53;;;;;;;;;;5072544;28;20174;-64
2022/11/13 11:49:00;;;;;;;10.57;8.47;;;;;;;;;;5073765;28;20189;-65
2022/11/13 11:51:26;;;;;;;13.33;9.27;;;;;;;;;;5074243;28;20312;-65
2022/11/13 11:54:01;;;;;;;13.03;8.23;;;;;;;;;;5070551;28;20598;-64
2022/11/13 11:56:35;;;;;;;12.97;8.40;;;;;;;;;;5070489;28;20585;-64
2022/11/13 11:59:09;;;;;;;12.07;9.03;;;;;;;;;;5070842;28;20576;-65
2022/11/13 12:01:53;;;;;;;10.80;8.03;;;;;;;;;;5072032;28;20229;-66
2022/11/13 12:04:34;;;;;;;11.50;7.73;;;;;;;;;;5073974;28;20674;-65
2022/11/13 12:07:19;;;;;;;12.23;7.70;;;;;;;;;;5073146;28;20243;-65
2022/11/13 12:09:55;;;;;;;12.57;7.57;;;;;;;;;;5074577;28;20188;-64
2022/11/13 12:12:24;;;;;;;13.30;7.80;;;;;;;;;;5073689;28;20209;-66
2022/11/13 12:14:53;;;;;;;10.53;8.07;;;;;;;;;;5072999;28;20297;-65
2022/11/13 12:17:35;;;;;;;9.50;7.07;;;;;;;;;;5072767;28;20178;-64
2022/11/13 12:20:07;;;;;;;14.27;7.83;;;;;;;;;;5071604;28;20564;-64
2022/11/13 12:22:38;;;;;;;17.27;8.27;;;;;;;;;;5070907;28;20189;-65
2022/11/13 12:25:23;;;;;;;14.00;9.03;;;;;;;;;;5068535;28;20192;-65
2022/11/13 12:28:07;;;;;;;15.73;8.70;;;;;;;;;;5070197;28;20256;-65
2022/11/13 12:30:42;;;;;;;15.53;8.57;;;;;;;;;;5068266;28;20202;-66
2022/11/13 12:33:22;;;;;;;15.10;9.23;;;;;;;;;;5069856;28;20204;-65
2022/11/13 12:35:50;;;;;;;13.47;8.03;;;;;;;;;;5068457;28;20166;-65
2022/11/13 12:38:34;;;;;;;12.00;6.93;;;;;;;;;;5068509;28;20178;-65
2022/11/13 12:41:00;;;;;;;11.13;7.40;;;;;;;;;;5069841;28;20209;-65
2022/11/13 12:43:29;;;;;;;8.47;5.57;;;;;;;;;;5069711;28;20174;-65
2022/11/13 12:45:56;;;;;;;8.33;5.30;;;;;;;;;;5069597;28;20666;-65
2022/11/13 12:48:26;;;;;;;9.80;5.70;;;;;;;;;;5069448;28;20528;-64
2022/11/13 12:51:19;;;;;;;8.20;6.07;;;;;;;;;;5069523;28;20213;-65
2022/11/13 12:53:50;;;;;;;11.87;6.70;;;;;;;;;;5068111;28;20224;-65
2022/11/13 12:56:26;;;;;;;8.80;7.13;;;;;;;;;;5069502;28;20590;-63
2022/11/13 12:59:12;;;;;;;10.60;7.40;;;;;;;;;;5069565;28;20176;-65
2022/11/13 13:01:43;;;;;;;11.13;8.37;;;;;;;;;;5065163;28;20284;-66
2022/11/13 13:04:27;;;;;;;13.17;8.50;;;;;;;;;;5062709;28;20251;-66
2022/11/13 13:06:53;;;;;;;12.83;8.87;;;;;;;;;;5055980;28;20166;-66
2022/11/13 13:09:31;;;;;;;18.23;9.43;;;;;;;;;;5055757;28;20178;-66
2022/11/13 13:12:00;;;;;;;14.20;9.20;;;;;;;;;;5054259;28;20203;-65
2022/11/13 13:14:41;;;;;;;10.23;8.40;;;;;;;;;;5054465;28;20232;-66
2022/11/13 13:17:17;;;;;;;11.80;7.17;;;;;;;;;;5055618;28;20551;-66
2022/11/13 13:19:43;;;;;;;8.53;6.57;;;;;;;;;;5055929;28;20571;-66
2022/11/13 13:22:10;;;;;;;12.00;7.70;;;;;;;;;;5055664;28;20183;-66
2022/11/13 13:24:37;;;;;;;9.30;7.37;;;;;;;;;;5054327;28;20273;-66
2022/11/13 13:27:20;;;;;;;10.10;7.40;;;;;;;;;;5056093;28;20647;-65
2022/11/13 13:29:47;;;;;;;21.30;8.10;;;;;;;;;;5055771;28;20166;-65
2022/11/13 13:32:25;;;;;;;9.83;7.83;;;;;;;;;;5055512;28;20203;-66
2022/11/13 13:34:51;;;;;;;8.13;7.27;;;;;;;;;;5055269;28;20175;-67
2022/11/13 13:37:30;;;;;;;12.60;8.40;;;;;;;;;;5055283;28;20186;-65
2022/11/13 13:40:02;;;;;;;10.60;8.00;;;;;;;;;;5054144;28;20209;-66
2022/11/13 13:42:37;;;;;;;14.77;9.60;;;;;;;;;;5055536;28;20269;-65
2022/11/13 13:45:17;;;;;;;13.07;8.83;;;;;;;;;;5053843;28;20182;-66
2022/11/13 13:47:46;;;;;;;14.63;8.70;;;;;;;;;;5055335;28;20257;-65
2022/11/13 13:50:16;;;;;;;12.33;8.63;;;;;;;;;;5055093;28;20217;-65
2022/11/13 13:52:43;;;;;;;10.53;9.17;;;;;;;;;;5054936;28;20218;-66
2022/11/13 13:55:17;;;;;;;12.43;9.60;;;;;;;;;;5055081;28;20248;-65
2022/11/13 13:57:44;;;;;;;10.83;8.40;;;;;;;;;;5054003;28;20175;-66
2022/11/13 14:00:12;;;;;;;9.83;8.83;;;;;;;;;;5055152;28;20675;-64
2022/11/13 14:02:44;;;;;;;13.20;8.47;;;;;;;;;;5054890;28;20174;-66
2022/11/13 14:05:30;;;;;;;9.90;8.20;;;;;;;;;;5075833;22;20235;-69
2022/11/13 14:07:57;;;;;;;10.73;9.43;;;;;;;;;;5034722;28;20179;-70
2022/11/13 14:10:24;;;;;;;10.87;8.33;;;;;;;;;;5034616;28;20548;-70
2022/11/13 14:12:50;;;;;;;8.63;7.73;;;;;;;;;;5034536;28;20203;-67
2022/11/13 14:15:16;;;;;;;11.27;8.17;;;;;;;;;;5034375;28;20210;-69
2022/11/13 14:17:42;;;;;;;8.90;8.00;;;;;;;;;;5035360;28;20250;-67
2022/11/13 14:20:12;;;;;;;10.27;7.73;;;;;;;;;;5033173;28;20182;-67
2022/11/13 14:22:38;;;;;;;8.80;7.87;;;;;;;;;;5034362;28;20183;-67
2022/11/13 14:25:05;;;;;;;8.83;7.90;;;;;;;;;;5034173;28;20290;-67
2022/11/13 14:27:31;;;;;;;8.63;7.70;;;;;;;;;;5033329;28;20602;-67
2022/11/13 14:30:01;;;;;;;8.70;7.90;;;;;;;;;;5034575;28;20190;-68
2022/11/13 14:32:32;;;;;;;9.87;7.13;;;;;;;;;;5034200;28;20671;-67
2022/11/13 14:35:02;;;;;;;8.60;7.63;;;;;;;;;;5032784;28;20176;-68
2022/11/13 14:37:31;;;;;;;9.17;7.60;;;;;;;;;;5034091;28;20176;-68
2022/11/13 14:40:00;;;;;;;9.97;8.33;;;;;;;;;;5034280;28;20179;-68